sensor_id;sensor_type;location;lat;lon;timestamp;pressure;altitude;pressure_sealevel;temperature;humidity
62725;BME280;49026;52.600;4.694;2023-05-22T00:01:14;101646.16;;;11.64;66.77
62725;BME280;49026;52.600;4.694;2023-05-22T00:03:45;101647.09;;;11.63;67.01
62725;BME280;49026;52.600;4.694;2023-05-22T00:06:14;101645.31;;;11.63;67.21
62725;BME280;49026;52.600;4.694;2023-05-22T00:08:40;101640.91;;;11.64;67.15
62725;BME280;49026;52.600;4.694;2023-05-22T00:11:05;101634.84;;;11.62;66.97
62725;BME280;49026;52.600;4.694;2023-05-22T00:13:33;101645.47;;;11.59;67.25
62725;BME280;49026;52.600;4.694;2023-05-22T00:16:00;101641.13;;;11.58;67.53
62725;BME280;49026;52.600;4.694;2023-05-22T00:18:26;101642.13;;;11.54;67.24
62725;BME280;49026;52.600;4.694;2023-05-22T00:20:52;101643.09;;;11.51;67.35
62725;BME280;49026;52.600;4.694;2023-05-22T00:23:17;101635.31;;;11.46;67.74
62725;BME280;49026;52.600;4.694;2023-05-22T00:25:42;101648.56;;;11.43;67.62
62725;BME280;49026;52.600;4.694;2023-05-22T00:28:08;101645.13;;;11.41;67.91
62725;BME280;49026;52.600;4.694;2023-05-22T00:30:36;101631.16;;;11.39;67.82
62725;BME280;49026;52.600;4.694;2023-05-22T00:33:01;101628.59;;;11.38;67.68
62725;BME280;49026;52.600;4.694;2023-05-22T00:35:27;101637.38;;;11.37;68.03
62725;BME280;49026;52.600;4.694;2023-05-22T00:37:52;101638.22;;;11.37;67.92
62725;BME280;49026;52.600;4.694;2023-05-22T00:40:20;101643.50;;;11.37;67.67
62725;BME280;49026;52.600;4.694;2023-05-22T00:42:46;101646.06;;;11.39;68.08
62725;BME280;49026;52.600;4.694;2023-05-22T00:45:13;101652.06;;;11.44;68.27
62725;BME280;49026;52.600;4.694;2023-05-22T00:47:39;101661.44;;;11.53;68.74
62725;BME280;49026;52.600;4.694;2023-05-22T00:50:09;101653.19;;;11.65;68.32
62725;BME280;49026;52.600;4.694;2023-05-22T00:52:38;101639.69;;;11.74;68.31
62725;BME280;49026;52.600;4.694;2023-05-22T00:55:09;101641.16;;;11.84;68.44
62725;BME280;49026;52.600;4.694;2023-05-22T00:57:36;101643.53;;;11.92;68.67
62725;BME280;49026;52.600;4.694;2023-05-22T01:00:05;101638.94;;;11.99;68.40
62725;BME280;49026;52.600;4.694;2023-05-22T01:02:30;101630.94;;;12.02;68.45
62725;BME280;49026;52.600;4.694;2023-05-22T01:04:57;101636.19;;;12.02;68.35
62725;BME280;49026;52.600;4.694;2023-05-22T01:07:23;101642.38;;;12.01;68.40
62725;BME280;49026;52.600;4.694;2023-05-22T01:09:48;101642.50;;;11.98;68.40
62725;BME280;49026;52.600;4.694;2023-05-22T01:15:23;101619.91;;;11.89;68.14
62725;BME280;49026;52.600;4.694;2023-05-22T01:21:05;101625.44;;;11.81;68.45
62725;BME280;49026;52.600;4.694;2023-05-22T01:23:48;101620.28;;;11.78;68.14
62725;BME280;49026;52.600;4.694;2023-05-22T01:26:42;101617.75;;;11.75;68.15
62725;BME280;49026;52.600;4.694;2023-05-22T01:29:44;101605.41;;;11.76;68.30
62725;BME280;49026;52.600;4.694;2023-05-22T01:32:17;101591.41;;;11.75;68.58
62725;BME280;49026;52.600;4.694;2023-05-22T01:34:51;101591.41;;;11.75;68.63
62725;BME280;49026;52.600;4.694;2023-05-22T01:37:18;101588.72;;;11.77;68.44
62725;BME280;49026;52.600;4.694;2023-05-22T01:39:47;101582.47;;;11.79;68.88
62725;BME280;49026;52.600;4.694;2023-05-22T01:42:22;101570.25;;;11.78;68.67
62725;BME280;49026;52.600;4.694;2023-05-22T01:44:48;101563.25;;;11.77;68.48
62725;BME280;49026;52.600;4.694;2023-05-22T01:47:16;101564.19;;;11.76;68.87
62725;BME280;49026;52.600;4.694;2023-05-22T01:49:42;101564.19;;;11.76;68.79
62725;BME280;49026;52.600;4.694;2023-05-22T01:54:57;101552.94;;;11.71;68.68
62725;BME280;49026;52.600;4.694;2023-05-22T01:57:31;101547.78;;;11.68;68.94
62725;BME280;49026;52.600;4.694;2023-05-22T02:00:06;101545.28;;;11.63;69.09
62725;BME280;49026;52.600;4.694;2023-05-22T02:02:37;101545.38;;;11.60;68.81
62725;BME280;49026;52.600;4.694;2023-05-22T02:05:04;101550.75;;;11.57;68.83
62725;BME280;49026;52.600;4.694;2023-05-22T02:07:31;101545.56;;;11.54;69.00
62725;BME280;49026;52.600;4.694;2023-05-22T02:09:57;101544.72;;;11.54;69.02
62725;BME280;49026;52.600;4.694;2023-05-22T02:12:23;101543.13;;;11.49;69.28
62725;BME280;49026;52.600;4.694;2023-05-22T02:14:49;101539.66;;;11.47;69.54
62725;BME280;49026;52.600;4.694;2023-05-22T02:17:15;101544.97;;;11.46;69.53
62725;BME280;49026;52.600;4.694;2023-05-22T02:19:45;101538.84;;;11.45;69.55
62725;BME280;49026;52.600;4.694;2023-05-22T02:22:10;101529.19;;;11.46;69.71
62725;BME280;49026;52.600;4.694;2023-05-22T02:24:44;101527.44;;;11.46;69.90
62725;BME280;49026;52.600;4.694;2023-05-22T02:27:11;101527.44;;;11.46;69.83
62725;BME280;49026;52.600;4.694;2023-05-22T02:29:37;101523.06;;;11.45;69.98
62725;BME280;49026;52.600;4.694;2023-05-22T02:32:02;101524.00;;;11.44;69.97
62725;BME280;49026;52.600;4.694;2023-05-22T02:34:28;101518.72;;;11.44;70.18
62725;BME280;49026;52.600;4.694;2023-05-22T02:36:57;101506.47;;;11.43;70.35
62725;BME280;49026;52.600;4.694;2023-05-22T02:39:24;101505.63;;;11.43;70.25
62725;BME280;49026;52.600;4.694;2023-05-22T02:41:49;101505.63;;;11.43;70.51
62725;BME280;49026;52.600;4.694;2023-05-22T02:44:15;101507.41;;;11.41;70.22
62725;BME280;49026;52.600;4.694;2023-05-22T02:46:42;101508.31;;;11.41;70.23
62725;BME280;49026;52.600;4.694;2023-05-22T02:49:10;101499.47;;;11.42;70.65
62725;BME280;49026;52.600;4.694;2023-05-22T02:51:38;101490.69;;;11.43;71.10
62725;BME280;49026;52.600;4.694;2023-05-22T02:54:03;101486.22;;;11.45;71.50
62725;BME280;49026;52.600;4.694;2023-05-22T02:56:28;101496.69;;;11.47;71.29
62725;BME280;49026;52.600;4.694;2023-05-22T02:58:54;101500.19;;;11.47;71.18
62725;BME280;49026;52.600;4.694;2023-05-22T03:01:20;101499.38;;;11.45;70.78
62725;BME280;49026;52.600;4.694;2023-05-22T03:03:48;101497.69;;;11.44;71.18
62725;BME280;49026;52.600;4.694;2023-05-22T03:06:14;101497.59;;;11.46;70.87
62725;BME280;49026;52.600;4.694;2023-05-22T03:08:40;101491.53;;;11.44;70.93
62725;BME280;49026;52.600;4.694;2023-05-22T03:11:08;101494.22;;;11.42;70.75
62725;BME280;49026;52.600;4.694;2023-05-22T03:13:35;101510.84;;;11.44;70.65
62725;BME280;49026;52.600;4.694;2023-05-22T03:16:01;101508.19;;;11.44;70.85
62725;BME280;49026;52.600;4.694;2023-05-22T03:18:26;101505.56;;;11.44;71.00
62725;BME280;49026;52.600;4.694;2023-05-22T03:20:54;101496.78;;;11.44;70.48
62725;BME280;49026;52.600;4.694;2023-05-22T03:23:21;101487.16;;;11.44;70.73
62725;BME280;49026;52.600;4.694;2023-05-22T03:25:49;101495.09;;;11.43;70.83
62725;BME280;49026;52.600;4.694;2023-05-22T03:28:15;101507.38;;;11.42;70.72
62725;BME280;49026;52.600;4.694;2023-05-22T03:30:43;101511.81;;;11.40;71.06
62725;BME280;49026;52.600;4.694;2023-05-22T03:33:08;101518.91;;;11.38;71.05
62725;BME280;49026;52.600;4.694;2023-05-22T03:35:33;101507.53;;;11.38;71.08
62725;BME280;49026;52.600;4.694;2023-05-22T03:38:01;101503.22;;;11.35;70.65
62725;BME280;49026;52.600;4.694;2023-05-22T03:40:26;101504.06;;;11.36;71.13
62725;BME280;49026;52.600;4.694;2023-05-22T03:42:51;101493.59;;;11.34;70.97
62725;BME280;49026;52.600;4.694;2023-05-22T03:45:19;101487.53;;;11.32;70.96
62725;BME280;49026;52.600;4.694;2023-05-22T03:47:44;101494.63;;;11.30;70.93
62725;BME280;49026;52.600;4.694;2023-05-22T03:50:10;101491.16;;;11.29;71.08
62725;BME280;49026;52.600;4.694;2023-05-22T03:52:35;101492.91;;;11.29;70.97
62725;BME280;49026;52.600;4.694;2023-05-22T03:55:00;101494.63;;;11.30;70.90
62725;BME280;49026;52.600;4.694;2023-05-22T03:57:28;101489.38;;;11.30;70.83
62725;BME280;49026;52.600;4.694;2023-05-22T03:59:53;101490.97;;;11.34;70.86
62725;BME280;49026;52.600;4.694;2023-05-22T04:02:19;101492.66;;;11.37;71.17
62725;BME280;49026;52.600;4.694;2023-05-22T04:04:45;101504.97;;;11.36;71.24
62725;BME280;49026;52.600;4.694;2023-05-22T04:07:12;101495.25;;;11.38;71.06
62725;BME280;49026;52.600;4.694;2023-05-22T04:09:40;101496.88;;;11.41;71.13
62725;BME280;49026;52.600;4.694;2023-05-22T04:12:08;101503.03;;;11.41;71.20
62725;BME280;49026;52.600;4.694;2023-05-22T04:14:33;101502.97;;;11.43;71.37
62725;BME280;49026;52.600;4.694;2023-05-22T04:16:59;101508.19;;;11.44;71.16
62725;BME280;49026;52.600;4.694;2023-05-22T04:19:24;101509.81;;;11.48;71.20
62725;BME280;49026;52.600;4.694;2023-05-22T04:21:52;101523.66;;;11.54;71.53
62725;BME280;49026;52.600;4.694;2023-05-22T04:24:19;101509.50;;;11.58;71.32
62725;BME280;49026;52.600;4.694;2023-05-22T04:26:47;101505.75;;;11.65;71.44
62725;BME280;49026;52.600;4.694;2023-05-22T04:29:13;101512.53;;;11.72;71.96
62725;BME280;49026;52.600;4.694;2023-05-22T04:31:38;101514.09;;;11.78;71.90
62725;BME280;49026;52.600;4.694;2023-05-22T04:34:03;101519.94;;;11.86;72.14
62725;BME280;49026;52.600;4.694;2023-05-22T04:36:29;101518.75;;;11.96;71.93
62725;BME280;49026;52.600;4.694;2023-05-22T04:38:55;101520.09;;;12.08;72.03
62725;BME280;49026;52.600;4.694;2023-05-22T04:41:20;101521.38;;;12.21;72.51
62725;BME280;49026;52.600;4.694;2023-05-22T04:43:52;101527.91;;;12.35;72.25
62725;BME280;49026;52.600;4.694;2023-05-22T04:46:18;101530.09;;;12.47;72.58
62725;BME280;49026;52.600;4.694;2023-05-22T04:48:47;101537.38;;;12.64;73.14
62725;BME280;49026;52.600;4.694;2023-05-22T04:51:12;101534.66;;;12.89;72.57
62725;BME280;49026;52.600;4.694;2023-05-22T04:53:39;101532.34;;;13.04;72.65
62725;BME280;49026;52.600;4.694;2023-05-22T04:56:06;101531.22;;;13.09;72.45
62725;BME280;49026;52.600;4.694;2023-05-22T04:58:34;101546.09;;;13.12;72.64
62725;BME280;49026;52.600;4.694;2023-05-22T05:01:04;101550.38;;;13.14;72.84
62725;BME280;49026;52.600;4.694;2023-05-22T05:03:29;101547.56;;;13.19;72.93
62725;BME280;49026;52.600;4.694;2023-05-22T05:05:57;101551.81;;;13.23;72.91
62725;BME280;49026;52.600;4.694;2023-05-22T05:08:26;101551.59;;;13.28;72.77
62725;BME280;49026;52.600;4.694;2023-05-22T05:10:51;101550.63;;;13.30;73.29
62725;BME280;49026;52.600;4.694;2023-05-22T05:13:16;101553.19;;;13.33;73.04
62725;BME280;49026;52.600;4.694;2023-05-22T05:15:41;101553.13;;;13.35;72.68
62725;BME280;49026;52.600;4.694;2023-05-22T05:18:07;101554.41;;;13.47;72.95
62725;BME280;49026;52.600;4.694;2023-05-22T05:20:34;101549.88;;;13.71;72.87
62725;BME280;49026;52.600;4.694;2023-05-22T05:23:04;101553.94;;;14.00;72.94
62725;BME280;49026;52.600;4.694;2023-05-22T05:25:30;101552.19;;;14.20;73.01
62725;BME280;49026;52.600;4.694;2023-05-22T05:27:57;101569.09;;;14.36;73.52
62725;BME280;49026;52.600;4.694;2023-05-22T05:30:22;101579.28;;;14.45;72.65
62725;BME280;49026;52.600;4.694;2023-05-22T05:32:48;101584.19;;;14.53;72.73
62725;BME280;49026;52.600;4.694;2023-05-22T05:35:13;101588.34;;;14.60;72.43
62725;BME280;49026;52.600;4.694;2023-05-22T05:37:38;101585.19;;;14.71;72.34
62725;BME280;49026;52.600;4.694;2023-05-22T05:40:04;101580.34;;;15.00;71.98
62725;BME280;49026;52.600;4.694;2023-05-22T05:42:31;101577.66;;;15.38;71.48
62725;BME280;49026;52.600;4.694;2023-05-22T05:44:56;101575.41;;;15.48;70.85
62725;BME280;49026;52.600;4.694;2023-05-22T05:47:24;101580.44;;;15.35;71.54
62725;BME280;49026;52.600;4.694;2023-05-22T05:49:51;101579.78;;;15.12;71.25
62725;BME280;49026;52.600;4.694;2023-05-22T05:52:16;101579.69;;;14.95;71.59
62725;BME280;49026;52.600;4.694;2023-05-22T05:54:41;101576.78;;;14.82;72.03
62725;BME280;49026;52.600;4.694;2023-05-22T05:57:14;101576.41;;;14.71;71.98
62725;BME280;49026;52.600;4.694;2023-05-22T05:59:39;101574.03;;;14.64;72.34
62725;BME280;49026;52.600;4.694;2023-05-22T06:02:05;101570.41;;;14.67;72.78
62725;BME280;49026;52.600;4.694;2023-05-22T06:04:30;101572.47;;;14.79;72.97
62725;BME280;49026;52.600;4.694;2023-05-22T06:06:55;101572.63;;;14.95;73.11
62725;BME280;49026;52.600;4.694;2023-05-22T06:09:23;101573.06;;;15.05;73.36
62725;BME280;49026;52.600;4.694;2023-05-22T06:11:48;101570.88;;;15.13;73.44
62725;BME280;49026;52.600;4.694;2023-05-22T06:14:16;101577.63;;;15.21;73.44
62725;BME280;49026;52.600;4.694;2023-05-22T06:16:43;101577.16;;;15.30;73.68
62725;BME280;49026;52.600;4.694;2023-05-22T06:19:09;101576.59;;;15.42;73.95
62725;BME280;49026;52.600;4.694;2023-05-22T06:21:35;101569.91;;;15.52;73.98
62725;BME280;49026;52.600;4.694;2023-05-22T06:24:00;101567.19;;;15.71;73.87
62725;BME280;49026;52.600;4.694;2023-05-22T06:26:25;101574.47;;;15.85;73.86
62725;BME280;49026;52.600;4.694;2023-05-22T06:28:54;101570.34;;;15.97;74.03
62725;BME280;49026;52.600;4.694;2023-05-22T06:31:20;101573.38;;;16.07;74.02
62725;BME280;49026;52.600;4.694;2023-05-22T06:33:46;101571.78;;;16.20;74.21
62725;BME280;49026;52.600;4.694;2023-05-22T06:36:12;101572.88;;;16.34;74.20
62725;BME280;49026;52.600;4.694;2023-05-22T06:38:37;101578.16;;;16.51;74.27
62725;BME280;49026;52.600;4.694;2023-05-22T06:41:03;101585.13;;;16.70;74.16
62725;BME280;49026;52.600;4.694;2023-05-22T06:43:29;101591.34;;;16.86;74.48
62725;BME280;49026;52.600;4.694;2023-05-22T06:45:56;101588.19;;;17.11;74.58
62725;BME280;49026;52.600;4.694;2023-05-22T06:48:24;101593.13;;;17.33;74.15
62725;BME280;49026;52.600;4.694;2023-05-22T06:50:49;101597.16;;;17.56;74.27
62725;BME280;49026;52.600;4.694;2023-05-22T06:53:15;101598.06;;;17.71;74.00
62725;BME280;49026;52.600;4.694;2023-05-22T06:55:40;101601.81;;;17.83;74.04
62725;BME280;49026;52.600;4.694;2023-05-22T06:58:08;101600.94;;;17.99;74.10
62725;BME280;49026;52.600;4.694;2023-05-22T07:00:36;101598.63;;;18.23;74.19
62725;BME280;49026;52.600;4.694;2023-05-22T07:03:04;101591.59;;;18.50;74.25
62725;BME280;49026;52.600;4.694;2023-05-22T07:05:30;101602.22;;;18.79;73.84
62725;BME280;49026;52.600;4.694;2023-05-22T07:07:56;101603.75;;;19.12;73.55
62725;BME280;49026;52.600;4.694;2023-05-22T07:10:21;101593.22;;;19.38;72.76
62725;BME280;49026;52.600;4.694;2023-05-22T07:12:49;101601.78;;;19.56;71.90
62725;BME280;49026;52.600;4.694;2023-05-22T07:15:14;101597.63;;;19.79;72.41
62725;BME280;49026;52.600;4.694;2023-05-22T07:17:39;101600.47;;;20.03;71.86
62725;BME280;49026;52.600;4.694;2023-05-22T07:20:06;101596.75;;;20.31;73.14
62725;BME280;49026;52.600;4.694;2023-05-22T07:22:32;101601.34;;;20.55;71.71
62725;BME280;49026;52.600;4.694;2023-05-22T07:24:59;101596.84;;;20.55;70.11
62725;BME280;49026;52.600;4.694;2023-05-22T07:27:25;101601.44;;;20.41;69.29
62725;BME280;49026;52.600;4.694;2023-05-22T07:29:50;101603.25;;;20.27;69.59
62725;BME280;49026;52.600;4.694;2023-05-22T07:32:15;101600.38;;;20.17;68.98
62725;BME280;49026;52.600;4.694;2023-05-22T07:34:43;101601.75;;;20.10;69.25
62725;BME280;49026;52.600;4.694;2023-05-22T07:37:10;101600.38;;;20.05;69.21
62725;BME280;49026;52.600;4.694;2023-05-22T07:39:36;101607.28;;;20.07;69.76
62725;BME280;49026;52.600;4.694;2023-05-22T07:42:01;101604.13;;;20.15;69.28
62725;BME280;49026;52.600;4.694;2023-05-22T07:44:28;101599.53;;;20.30;69.79
62725;BME280;49026;52.600;4.694;2023-05-22T07:46:57;101612.03;;;20.55;69.32
62725;BME280;49026;52.600;4.694;2023-05-22T07:49:27;101617.59;;;20.65;69.20
62725;BME280;49026;52.600;4.694;2023-05-22T07:51:53;101611.28;;;20.79;69.92
62725;BME280;49026;52.600;4.694;2023-05-22T07:54:18;101612.00;;;20.94;69.11
62725;BME280;49026;52.600;4.694;2023-05-22T07:56:44;101611.72;;;21.09;68.91
62725;BME280;49026;52.600;4.694;2023-05-22T07:59:10;101622.28;;;21.24;69.93
62725;BME280;49026;52.600;4.694;2023-05-22T08:01:37;101617.59;;;21.52;68.86
62725;BME280;49026;52.600;4.694;2023-05-22T08:04:03;101616.91;;;21.61;67.87
62725;BME280;49026;52.600;4.694;2023-05-22T08:06:31;101607.06;;;21.61;65.49
62725;BME280;49026;52.600;4.694;2023-05-22T08:08:59;101613.69;;;21.69;67.46
62725;BME280;49026;52.600;4.694;2023-05-22T08:11:24;101609.78;;;21.73;66.86
62725;BME280;49026;52.600;4.694;2023-05-22T08:13:51;101604.84;;;21.79;65.51
62725;BME280;49026;52.600;4.694;2023-05-22T08:16:17;101619.56;;;21.85;66.48
62725;BME280;49026;52.600;4.694;2023-05-22T08:18:45;101614.38;;;21.95;67.47
62725;BME280;49026;52.600;4.694;2023-05-22T08:21:10;101619.72;;;21.95;67.14
62725;BME280;49026;52.600;4.694;2023-05-22T08:23:37;101630.66;;;21.92;64.55
62725;BME280;49026;52.600;4.694;2023-05-22T08:26:10;101624.66;;;21.77;65.18
62725;BME280;49026;52.600;4.694;2023-05-22T08:28:36;101627.16;;;21.67;64.96
62725;BME280;49026;52.600;4.694;2023-05-22T08:31:03;101621.59;;;21.70;66.58
62725;BME280;49026;52.600;4.694;2023-05-22T08:33:29;101625.66;;;21.87;67.10
62725;BME280;49026;52.600;4.694;2023-05-22T08:35:56;101627.72;;;22.19;66.67
62725;BME280;49026;52.600;4.694;2023-05-22T08:38:22;101624.09;;;22.31;65.46
62725;BME280;49026;52.600;4.694;2023-05-22T08:40:47;101620.84;;;22.39;64.71
62725;BME280;49026;52.600;4.694;2023-05-22T08:43:18;101631.78;;;22.36;65.61
62725;BME280;49026;52.600;4.694;2023-05-22T08:45:44;101638.09;;;22.35;65.34
62725;BME280;49026;52.600;4.694;2023-05-22T08:48:12;101621.31;;;22.33;64.68
62725;BME280;49026;52.600;4.694;2023-05-22T08:50:40;101628.88;;;22.39;65.85
62725;BME280;49026;52.600;4.694;2023-05-22T08:53:07;101631.78;;;22.58;64.58
62725;BME280;49026;52.600;4.694;2023-05-22T08:55:33;101633.41;;;22.61;64.15
62725;BME280;49026;52.600;4.694;2023-05-22T08:58:01;101633.75;;;22.68;65.00
62725;BME280;49026;52.600;4.694;2023-05-22T09:00:26;101631.31;;;22.42;62.66
62725;BME280;49026;52.600;4.694;2023-05-22T09:02:52;101630.81;;;22.37;58.50
62725;BME280;49026;52.600;4.694;2023-05-22T09:05:17;101630.47;;;22.53;64.55
62725;BME280;49026;52.600;4.694;2023-05-22T09:07:43;101623.66;;;22.71;65.47
62725;BME280;49026;52.600;4.694;2023-05-22T09:10:11;101623.41;;;22.97;64.82
62725;BME280;49026;52.600;4.694;2023-05-22T09:12:36;101625.84;;;23.11;64.18
62725;BME280;49026;52.600;4.694;2023-05-22T09:15:08;101619.88;;;23.08;63.41
62725;BME280;49026;52.600;4.694;2023-05-22T09:17:38;101617.94;;;23.10;64.72
62725;BME280;49026;52.600;4.694;2023-05-22T09:20:04;101616.91;;;23.34;65.32
62725;BME280;49026;52.600;4.694;2023-05-22T09:22:34;101614.28;;;23.55;64.32
62725;BME280;49026;52.600;4.694;2023-05-22T09:25:02;101607.59;;;23.49;63.73
62725;BME280;49026;52.600;4.694;2023-05-22T09:27:27;101604.69;;;23.41;63.63
62725;BME280;49026;52.600;4.694;2023-05-22T09:29:54;101608.09;;;23.43;63.83
62725;BME280;49026;52.600;4.694;2023-05-22T09:32:23;101607.50;;;23.72;65.46
62725;BME280;49026;52.600;4.694;2023-05-22T09:34:49;101606.53;;;23.84;63.22
62725;BME280;49026;52.600;4.694;2023-05-22T09:37:17;101599.25;;;23.96;64.28
62725;BME280;49026;52.600;4.694;2023-05-22T09:39:46;101600.69;;;24.21;63.42
62725;BME280;49026;52.600;4.694;2023-05-22T09:42:15;101595.50;;;23.87;53.48
62725;BME280;49026;52.600;4.694;2023-05-22T09:44:48;101603.19;;;23.59;62.18
62725;BME280;49026;52.600;4.694;2023-05-22T09:47:14;101616.50;;;23.82;63.11
62725;BME280;49026;52.600;4.694;2023-05-22T09:49:42;101616.41;;;24.04;62.49
62725;BME280;49026;52.600;4.694;2023-05-22T09:52:09;101619.34;;;24.01;60.91
62725;BME280;49026;52.600;4.694;2023-05-22T09:54:47;101618.59;;;24.20;61.90
62725;BME280;49026;52.600;4.694;2023-05-22T09:57:16;101611.50;;;24.40;62.67
62725;BME280;49026;52.600;4.694;2023-05-22T09:59:43;101606.06;;;24.52;62.01
62725;BME280;49026;52.600;4.694;2023-05-22T10:02:11;101607.16;;;24.70;60.58
62725;BME280;49026;52.600;4.694;2023-05-22T10:04:48;101608.84;;;25.12;62.38
62725;BME280;49026;52.600;4.694;2023-05-22T10:07:14;101600.16;;;25.49;62.10
62725;BME280;49026;52.600;4.694;2023-05-22T10:09:42;101598.03;;;25.92;63.14
62725;BME280;49026;52.600;4.694;2023-05-22T10:12:11;101606.13;;;26.11;49.53
62725;BME280;49026;52.600;4.694;2023-05-22T10:14:40;101609.03;;;26.28;62.44
62725;BME280;49026;52.600;4.694;2023-05-22T10:17:09;101607.59;;;26.43;63.14
62725;BME280;49026;52.600;4.694;2023-05-22T10:19:36;101605.94;;;26.70;62.93
62725;BME280;49026;52.600;4.694;2023-05-22T10:22:03;101608.31;;;26.73;61.85
62725;BME280;49026;52.600;4.694;2023-05-22T10:24:31;101605.41;;;26.56;61.17
62725;BME280;49026;52.600;4.694;2023-05-22T10:26:58;101604.56;;;26.46;62.37
62725;BME280;49026;52.600;4.694;2023-05-22T10:29:37;101600.56;;;26.60;61.73
62725;BME280;49026;52.600;4.694;2023-05-22T10:32:20;101599.53;;;26.61;60.66
62725;BME280;49026;52.600;4.694;2023-05-22T10:35:00;101602.81;;;26.65;59.79
62725;BME280;49026;52.600;4.694;2023-05-22T10:37:40;101588.31;;;26.75;59.45
62725;BME280;49026;52.600;4.694;2023-05-22T10:40:11;101594.09;;;27.08;61.20
62725;BME280;49026;52.600;4.694;2023-05-22T10:42:37;101604.19;;;27.24;60.46
62725;BME280;49026;52.600;4.694;2023-05-22T10:45:06;101592.19;;;26.91;58.32
62725;BME280;49026;52.600;4.694;2023-05-22T10:47:36;101599.25;;;26.27;59.16
62725;BME280;49026;52.600;4.694;2023-05-22T10:50:09;101596.34;;;25.71;59.34
62725;BME280;49026;52.600;4.694;2023-05-22T10:52:36;101586.84;;;25.28;59.16
62725;BME280;49026;52.600;4.694;2023-05-22T10:55:06;101586.53;;;24.81;58.71
62725;BME280;49026;52.600;4.694;2023-05-22T10:57:32;101581.31;;;24.79;60.12
62725;BME280;49026;52.600;4.694;2023-05-22T11:00:08;101583.94;;;25.10;60.07
62725;BME280;49026;52.600;4.694;2023-05-22T11:02:41;101577.22;;;25.35;59.28
62725;BME280;49026;52.600;4.694;2023-05-22T11:07:40;101583.72;;;25.32;58.14
62725;BME280;49026;52.600;4.694;2023-05-22T11:10:06;101588.91;;;25.14;60.33
62725;BME280;49026;52.600;4.694;2023-05-22T11:12:31;101589.47;;;25.08;59.61
62725;BME280;49026;52.600;4.694;2023-05-22T11:15:07;101588.56;;;24.88;59.85
62725;BME280;49026;52.600;4.694;2023-05-22T11:17:46;101572.50;;;24.67;59.14
62725;BME280;49026;52.600;4.694;2023-05-22T11:20:20;101588.78;;;24.45;59.70
62725;BME280;49026;52.600;4.694;2023-05-22T11:22:55;101592.19;;;24.47;58.69
62725;BME280;49026;52.600;4.694;2023-05-22T11:25:21;101599.72;;;24.53;59.33
62725;BME280;49026;52.600;4.694;2023-05-22T11:27:48;101599.69;;;24.74;59.29
62725;BME280;49026;52.600;4.694;2023-05-22T11:30:16;101598.78;;;24.94;59.59
62725;BME280;49026;52.600;4.694;2023-05-22T11:32:43;101603.72;;;24.99;59.90
62725;BME280;49026;52.600;4.694;2023-05-22T11:35:21;101605.75;;;25.17;59.32
62725;BME280;49026;52.600;4.694;2023-05-22T11:37:48;101608.56;;;25.15;59.27
62725;BME280;49026;52.600;4.694;2023-05-22T11:40:23;101613.97;;;25.25;59.10
62725;BME280;49026;52.600;4.694;2023-05-22T11:42:49;101608.88;;;25.22;59.50
62725;BME280;49026;52.600;4.694;2023-05-22T11:45:15;101610.25;;;25.06;59.04
62725;BME280;49026;52.600;4.694;2023-05-22T11:47:42;101605.34;;;24.81;58.12
62725;BME280;49026;52.600;4.694;2023-05-22T11:50:09;101607.53;;;24.56;58.52
62725;BME280;49026;52.600;4.694;2023-05-22T11:52:36;101615.38;;;24.48;59.17
62725;BME280;49026;52.600;4.694;2023-05-22T11:55:05;101609.56;;;24.42;58.74
62725;BME280;49026;52.600;4.694;2023-05-22T11:57:31;101614.66;;;24.46;59.69
62725;BME280;49026;52.600;4.694;2023-05-22T11:59:58;101612.06;;;24.55;58.52
62725;BME280;49026;52.600;4.694;2023-05-22T12:02:23;101612.78;;;24.36;58.37
62725;BME280;49026;52.600;4.694;2023-05-22T12:04:55;101623.13;;;24.20;58.65
62725;BME280;49026;52.600;4.694;2023-05-22T12:07:22;101619.81;;;24.28;59.16
62725;BME280;49026;52.600;4.694;2023-05-22T12:09:47;101616.69;;;24.32;58.92
62725;BME280;49026;52.600;4.694;2023-05-22T12:12:15;101612.53;;;24.39;58.50
62725;BME280;49026;52.600;4.694;2023-05-22T12:14:44;101616.03;;;24.40;58.40
62725;BME280;49026;52.600;4.694;2023-05-22T12:17:12;101621.81;;;24.35;58.64
62725;BME280;49026;52.600;4.694;2023-05-22T12:19:41;101622.13;;;24.42;58.26
62725;BME280;49026;52.600;4.694;2023-05-22T12:22:07;101620.19;;;24.44;58.16
62725;BME280;49026;52.600;4.694;2023-05-22T12:24:40;101626.06;;;24.38;57.45
62725;BME280;49026;52.600;4.694;2023-05-22T12:27:10;101625.88;;;24.51;57.82
62725;BME280;49026;52.600;4.694;2023-05-22T12:29:37;101621.03;;;24.45;56.82
62725;BME280;49026;52.600;4.694;2023-05-22T12:32:06;101622.94;;;24.33;57.14
62725;BME280;49026;52.600;4.694;2023-05-22T12:34:33;101619.88;;;24.37;57.15
62725;BME280;49026;52.600;4.694;2023-05-22T12:36:59;101614.66;;;24.46;57.53
62725;BME280;49026;52.600;4.694;2023-05-22T12:39:27;101614.13;;;24.73;56.75
62725;BME280;49026;52.600;4.694;2023-05-22T12:41:53;101608.97;;;24.91;56.60
62725;BME280;49026;52.600;4.694;2023-05-22T12:44:22;101615.63;;;25.06;56.76
62725;BME280;49026;52.600;4.694;2023-05-22T12:46:47;101612.41;;;25.22;56.13
62725;BME280;49026;52.600;4.694;2023-05-22T12:49:12;101619.63;;;25.22;56.59
62725;BME280;49026;52.600;4.694;2023-05-22T12:51:37;101624.16;;;25.21;55.90
62725;BME280;49026;52.600;4.694;2023-05-22T12:54:03;101624.75;;;25.25;56.36
62725;BME280;49026;52.600;4.694;2023-05-22T12:56:30;101624.03;;;25.23;56.03
62725;BME280;49026;52.600;4.694;2023-05-22T12:58:58;101630.13;;;25.25;56.50
62725;BME280;49026;52.600;4.694;2023-05-22T13:01:24;101627.19;;;25.28;55.58
62725;BME280;49026;52.600;4.694;2023-05-22T13:03:51;101637.44;;;25.13;56.13